createdAt,value
2022-08-17T00:01:26.205Z,37.48
2022-08-17T00:03:54.762Z,37.56
2022-08-17T00:06:24.922Z,37.68
2022-08-17T00:09:00.585Z,38.08
2022-08-17T00:11:30.983Z,37.89
2022-08-17T00:14:05.129Z,37.95
2022-08-17T00:16:56.291Z,38.00
2022-08-17T00:19:24.446Z,37.80
2022-08-17T00:22:32.676Z,37.99
2022-08-17T00:24:39.922Z,37.71
2022-08-17T00:27:06.407Z,37.90
2022-08-17T00:29:32.945Z,38.09
2022-08-17T00:32:01.187Z,38.29
2022-08-17T00:34:47.569Z,37.44
2022-08-17T00:37:14.069Z,37.96
2022-08-17T00:39:40.865Z,37.92
2022-08-17T00:42:18.867Z,38.39
2022-08-17T00:44:46.172Z,37.94
2022-08-17T00:47:13.277Z,38.35
2022-08-17T00:49:39.999Z,38.50
2022-08-17T00:52:15.648Z,39.01
2022-08-17T00:54:46.987Z,39.04
2022-08-17T00:57:23.399Z,38.77
2022-08-17T01:00:02.476Z,39.31
2022-08-17T01:02:40.470Z,38.99
2022-08-17T01:05:15.314Z,39.16
2022-08-17T01:07:42.984Z,38.74
2022-08-17T01:10:59.175Z,38.85
2022-08-17T01:13:02.413Z,38.76
2022-08-17T01:15:36.012Z,39.35
2022-08-17T01:18:05.361Z,38.98
2022-08-17T01:20:32.543Z,39.20
2022-08-17T01:23:20.770Z,38.87
2022-08-17T01:25:56.651Z,39.35
2022-08-17T01:28:52.438Z,39.05
2022-08-17T01:31:12.941Z,38.93
2022-08-17T01:33:39.520Z,39.27
2022-08-17T01:36:07.476Z,39.28
2022-08-17T01:38:35.565Z,39.47
2022-08-17T01:41:08.004Z,39.66
2022-08-17T01:43:45.209Z,39.56
2022-08-17T01:46:16.031Z,39.35
2022-08-17T01:48:43.633Z,39.25
2022-08-17T01:51:10.291Z,38.98
2022-08-17T01:53:41.252Z,39.37
2022-08-17T01:56:13.827Z,40.09
2022-08-17T01:58:42.087Z,39.15
2022-08-17T02:01:10.105Z,39.47
2022-08-17T02:03:38.044Z,39.63
2022-08-17T02:06:06.096Z,39.42
2022-08-17T02:09:01.932Z,39.83
2022-08-17T02:11:32.296Z,39.83
2022-08-17T02:14:03.256Z,39.89
2022-08-17T02:16:36.678Z,39.99
2022-08-17T02:19:07.279Z,40.10
2022-08-17T02:21:34.222Z,40.06
2022-08-17T02:24:00.845Z,40.04
2022-08-17T02:26:27.408Z,40.38
2022-08-17T02:28:54.322Z,40.11
2022-08-17T02:31:21.344Z,40.31
2022-08-17T02:33:56.789Z,40.26
2022-08-17T02:36:31.351Z,40.47
2022-08-17T02:38:58.608Z,40.44
2022-08-17T02:41:25.300Z,40.12
2022-08-17T02:43:53.147Z,40.61
2022-08-17T02:46:19.704Z,40.14
2022-08-17T02:48:46.371Z,40.72
2022-08-17T02:51:12.876Z,40.57
2022-08-17T02:53:39.391Z,40.80
2022-08-17T02:56:06.108Z,40.89
2022-08-17T02:58:35.579Z,40.68
2022-08-17T03:01:05.881Z,41.07
2022-08-17T03:03:32.639Z,40.81
2022-08-17T03:05:59.195Z,41.08
2022-08-17T03:08:25.841Z,40.85
2022-08-17T03:10:52.366Z,40.98
2022-08-17T03:13:19.035Z,41.03
2022-08-17T03:15:46.427Z,41.09
2022-08-17T03:18:24.076Z,41.24
2022-08-17T03:20:52.295Z,40.88
2022-08-17T03:23:18.807Z,41.17
2022-08-17T03:25:52.864Z,41.20
2022-08-17T03:28:20.454Z,41.22
2022-08-17T03:30:47.000Z,41.35
2022-08-17T03:33:13.762Z,41.20
2022-08-17T03:35:41.072Z,41.38
2022-08-17T03:38:10.339Z,41.55
2022-08-17T03:40:58.204Z,41.39
2022-08-17T03:43:23.613Z,41.38
2022-08-17T03:46:28.979Z,41.63
2022-08-17T03:49:14.591Z,41.47
2022-08-17T03:51:59.906Z,41.52
2022-08-17T03:54:44.661Z,41.38
2022-08-17T03:57:12.260Z,41.67
2022-08-17T03:59:39.460Z,41.87
2022-08-17T04:02:19.081Z,42.27
2022-08-17T04:04:45.683Z,41.73
2022-08-17T04:07:12.334Z,41.71
2022-08-17T04:09:38.819Z,41.95
2022-08-17T04:12:05.778Z,41.68
2022-08-17T04:14:39.280Z,41.67
2022-08-17T04:17:21.056Z,41.63
2022-08-17T04:19:47.555Z,42.03
2022-08-17T04:22:32.945Z,41.88
2022-08-17T04:25:06.631Z,42.33
2022-08-17T04:27:33.429Z,41.59
2022-08-17T04:30:00.327Z,42.05
2022-08-17T04:33:04.017Z,41.85
2022-08-17T04:35:18.741Z,42.13
2022-08-17T04:37:45.569Z,41.89
2022-08-17T04:40:30.709Z,41.64
2022-08-17T04:43:10.739Z,42.17
2022-08-17T04:45:57.303Z,42.10
2022-08-17T04:48:35.486Z,41.84
2022-08-17T04:51:09.794Z,41.84
2022-08-17T04:53:37.750Z,42.03
2022-08-17T04:56:05.274Z,41.76
2022-08-17T04:58:33.194Z,41.91
2022-08-17T05:00:59.944Z,41.65
2022-08-17T05:03:26.574Z,41.61
2022-08-17T05:05:53.706Z,41.84
2022-08-17T05:08:21.575Z,41.57
2022-08-17T05:10:49.087Z,41.74
2022-08-17T05:13:27.963Z,41.85
2022-08-17T05:15:59.690Z,41.53
2022-08-17T05:18:27.256Z,41.78
2022-08-17T05:20:53.958Z,41.41
2022-08-17T05:23:22.100Z,41.68
2022-08-17T05:25:52.071Z,41.51
2022-08-17T05:28:24.164Z,41.41
2022-08-17T05:30:56.717Z,41.99
2022-08-17T05:33:26.375Z,41.88
2022-08-17T05:35:54.840Z,41.60
2022-08-17T05:38:22.596Z,41.06
2022-08-17T05:40:49.836Z,41.31
2022-08-17T05:43:38.276Z,41.51
2022-08-17T05:46:16.144Z,41.40
2022-08-17T05:48:46.014Z,41.44
2022-08-17T05:51:27.529Z,41.45
2022-08-17T05:54:31.775Z,41.36
2022-08-17T05:57:10.284Z,41.20
2022-08-17T05:59:48.899Z,41.03
2022-08-17T06:02:48.295Z,41.00
2022-08-17T06:05:23.464Z,40.44
2022-08-17T06:08:00.007Z,40.68
2022-08-17T06:10:37.861Z,40.34
2022-08-17T06:13:23.125Z,40.66
2022-08-17T06:16:33.521Z,40.49
2022-08-17T06:19:15.987Z,40.08
2022-08-17T06:21:45.304Z,40.16
2022-08-17T06:24:53.186Z,40.01
2022-08-17T06:27:35.678Z,39.79
2022-08-17T06:30:11.511Z,39.61
2022-08-17T06:32:41.284Z,39.85
2022-08-17T06:35:10.473Z,39.96
2022-08-17T06:37:50.544Z,39.33
2022-08-17T06:40:38.259Z,39.37
2022-08-17T06:43:22.995Z,39.36
2022-08-17T06:46:13.457Z,39.13
2022-08-17T06:49:00.916Z,39.10
2022-08-17T06:51:36.325Z,39.14
2022-08-17T06:54:11.201Z,38.94
2022-08-17T06:56:59.559Z,38.42
2022-08-17T06:59:55.030Z,38.40
2022-08-17T07:02:51.056Z,38.59
2022-08-17T07:05:32.195Z,38.36
2022-08-17T07:08:09.222Z,37.65
2022-08-17T07:10:46.156Z,37.77
2022-08-17T07:13:31.300Z,37.91
2022-08-17T07:16:07.573Z,37.68
2022-08-17T07:18:34.204Z,37.56
2022-08-17T07:21:26.173Z,37.16
2022-08-17T07:24:30.666Z,37.35
2022-08-17T07:27:20.847Z,37.13
2022-08-17T07:29:56.601Z,36.81
2022-08-17T07:32:27.528Z,36.64
2022-08-17T07:35:11.610Z,36.25
2022-08-17T07:37:53.140Z,36.13
2022-08-17T07:40:33.428Z,36.75
2022-08-17T07:43:03.299Z,36.37
2022-08-17T07:45:52.122Z,36.63
2022-08-17T07:48:25.853Z,36.31
2022-08-17T07:50:53.290Z,36.44
2022-08-17T07:53:25.269Z,36.44
2022-08-17T07:55:53.567Z,36.77
2022-08-17T07:58:23.436Z,36.37
2022-08-17T08:01:18.292Z,36.32
2022-08-17T08:03:46.219Z,36.11
2022-08-17T08:06:24.696Z,35.05
2022-08-17T08:08:54.910Z,35.21
2022-08-17T08:11:30.537Z,35.11
2022-08-17T08:14:20.546Z,35.80
2022-08-17T08:17:22.429Z,35.81
2022-08-17T08:19:48.924Z,35.94
2022-08-17T08:22:26.257Z,33.65
2022-08-17T08:25:07.266Z,32.70
2022-08-17T08:27:45.868Z,32.27
2022-08-17T08:30:19.164Z,32.19
2022-08-17T08:33:17.231Z,31.92
2022-08-17T08:35:55.332Z,31.61
2022-08-17T08:38:42.597Z,32.71
2022-08-17T08:41:40.765Z,32.31
2022-08-17T08:44:59.926Z,31.56
2022-08-17T08:47:46.833Z,31.29
2022-08-17T08:50:37.446Z,30.77
2022-08-17T08:53:11.731Z,29.96
2022-08-17T08:56:05.868Z,30.76
2022-08-17T08:58:48.322Z,30.38
2022-08-17T09:01:42.136Z,29.37
2022-08-17T09:04:26.269Z,29.35
2022-08-17T09:07:24.199Z,29.03
2022-08-17T09:10:15.219Z,29.66
2022-08-17T09:12:58.910Z,28.68
2022-08-17T09:15:44.810Z,28.69
2022-08-17T09:19:01.184Z,28.25
2022-08-17T09:21:18.388Z,28.43
2022-08-17T09:24:00.163Z,27.92
2022-08-17T09:27:02.686Z,29.00
2022-08-17T09:29:36.749Z,28.28
2022-08-17T09:32:41.166Z,28.25
2022-08-17T09:35:44.284Z,28.95
2022-08-17T09:38:33.360Z,28.17
2022-08-17T09:41:08.613Z,27.93
2022-08-17T09:44:23.425Z,28.61
2022-08-17T09:46:53.044Z,27.82
2022-08-17T09:49:30.895Z,27.89
2022-08-17T09:52:08.502Z,28.00
2022-08-17T09:54:40.879Z,28.54
2022-08-17T09:57:37.851Z,28.94
2022-08-17T10:00:11.920Z,28.46
2022-08-17T10:02:54.477Z,28.93
2022-08-17T10:05:23.264Z,29.00
2022-08-17T10:08:09.539Z,29.03
2022-08-17T10:11:05.729Z,29.22
2022-08-17T10:13:41.502Z,29.16
2022-08-17T10:16:26.121Z,29.33
2022-08-17T10:19:10.279Z,29.43
2022-08-17T10:22:01.035Z,29.04
2022-08-17T10:25:23.263Z,29.43
2022-08-17T10:28:01.667Z,29.47
2022-08-17T10:30:33.093Z,29.76
2022-08-17T10:33:15.412Z,29.31
2022-08-17T10:35:57.239Z,29.52
2022-08-17T10:38:39.315Z,29.56
2022-08-17T10:41:43.701Z,29.65
2022-08-17T10:44:38.902Z,29.48
2022-08-17T10:47:16.549Z,29.35
2022-08-17T10:49:53.631Z,29.46
2022-08-17T10:52:20.137Z,29.62
2022-08-17T10:54:58.497Z,29.67
2022-08-17T10:57:34.149Z,29.71
2022-08-17T11:00:15.474Z,30.06
2022-08-17T11:02:48.785Z,29.61
2022-08-17T11:05:50.278Z,29.81
2022-08-17T11:08:57.451Z,29.74
2022-08-17T11:12:00.992Z,29.72
2022-08-17T11:14:50.727Z,29.43
2022-08-17T11:17:43.107Z,29.55
2022-08-17T11:20:47.157Z,29.72
2022-08-17T11:23:16.961Z,29.69
2022-08-17T11:25:50.825Z,29.70
2022-08-17T11:28:23.854Z,29.52
2022-08-17T11:31:01.358Z,29.61
2022-08-17T11:33:36.754Z,29.72
2022-08-17T11:36:23.389Z,30.17
2022-08-17T11:39:27.470Z,29.85
2022-08-17T11:41:54.508Z,29.97
2022-08-17T11:44:29.907Z,30.54
2022-08-17T11:47:29.846Z,30.44
2022-08-17T11:50:44.226Z,30.47
2022-08-17T11:53:50.025Z,30.71
2022-08-17T11:56:41.084Z,30.91
2022-08-17T11:59:32.692Z,31.02
2022-08-17T12:02:34.951Z,31.20
2022-08-17T12:05:26.016Z,31.23
2022-08-17T12:07:56.088Z,31.19
2022-08-17T12:10:31.814Z,31.40
2022-08-17T12:13:12.752Z,31.37
2022-08-17T12:15:49.719Z,31.62
2022-08-17T12:18:24.525Z,31.62
2022-08-17T12:21:18.264Z,31.57
2022-08-17T12:23:56.200Z,31.48
2022-08-17T12:26:30.222Z,31.88
2022-08-17T12:29:02.603Z,31.83
2022-08-17T12:31:36.794Z,31.89
2022-08-17T12:34:04.953Z,32.09
2022-08-17T12:36:33.257Z,31.91
2022-08-17T12:39:13.000Z,31.87
2022-08-17T12:41:45.066Z,31.70
2022-08-17T12:44:12.170Z,31.62
2022-08-17T12:46:51.414Z,31.69
2022-08-17T12:49:26.432Z,31.75
2022-08-17T12:52:07.078Z,31.53
2022-08-17T12:54:50.279Z,31.62
2022-08-17T12:57:42.183Z,31.50
2022-08-17T13:00:17.602Z,31.77
2022-08-17T13:02:48.709Z,31.49
2022-08-17T13:05:27.604Z,31.14
2022-08-17T13:07:57.250Z,31.36
2022-08-17T13:10:32.222Z,31.11
2022-08-17T13:13:04.849Z,31.03
2022-08-17T13:15:44.630Z,31.40
2022-08-17T13:18:39.184Z,31.31
2022-08-17T13:21:23.669Z,31.32
2022-08-17T13:24:07.823Z,30.98
2022-08-17T13:26:36.556Z,30.62
2022-08-17T13:29:25.768Z,30.55
2022-08-17T13:32:15.993Z,30.84
2022-08-17T13:34:59.593Z,30.42
2022-08-17T13:37:36.531Z,30.72
2022-08-17T13:40:09.125Z,30.43
2022-08-17T13:42:52.952Z,30.60
2022-08-17T13:45:35.651Z,30.50
2022-08-17T13:48:29.265Z,30.74
2022-08-17T13:50:55.674Z,30.59
2022-08-17T13:53:37.443Z,30.55
2022-08-17T13:56:43.799Z,30.68
2022-08-17T13:59:52.806Z,30.71
2022-08-17T14:02:15.584Z,30.65
2022-08-17T14:04:45.343Z,30.31
2022-08-17T14:07:12.841Z,30.53
2022-08-17T14:09:58.142Z,30.38
2022-08-17T14:12:27.278Z,30.24
2022-08-17T14:14:56.328Z,30.57
2022-08-17T14:17:24.104Z,30.12
2022-08-17T14:19:51.582Z,30.41
2022-08-17T14:22:40.155Z,30.56
2022-08-17T14:25:10.416Z,30.45
2022-08-17T14:27:51.776Z,30.41
2022-08-17T14:30:22.467Z,30.15
2022-08-17T14:32:51.701Z,30.46
2022-08-17T14:35:19.440Z,30.55
2022-08-17T14:37:45.993Z,30.45
2022-08-17T14:40:15.339Z,30.63
2022-08-17T14:42:46.041Z,30.60
2022-08-17T14:45:31.813Z,30.64
2022-08-17T14:48:04.792Z,30.67
2022-08-17T14:50:32.191Z,30.72
2022-08-17T14:53:03.867Z,31.04
2022-08-17T14:55:31.153Z,30.93
2022-08-17T14:57:57.686Z,31.64
2022-08-17T15:00:24.411Z,31.46
2022-08-17T15:02:54.575Z,31.43
2022-08-17T15:05:26.683Z,32.11
2022-08-17T15:07:53.663Z,31.74
2022-08-17T15:10:20.570Z,31.68
2022-08-17T15:12:47.472Z,31.63
2022-08-17T15:15:15.540Z,31.65
2022-08-17T15:17:44.240Z,31.93
2022-08-17T15:20:17.662Z,32.03
2022-08-17T15:22:45.717Z,31.83
2022-08-17T15:25:13.084Z,32.21
2022-08-17T15:27:40.377Z,32.28
2022-08-17T15:30:08.496Z,32.14
2022-08-17T15:32:38.265Z,32.22
2022-08-17T15:35:06.580Z,32.12
2022-08-17T15:37:33.427Z,32.02
2022-08-17T15:40:03.737Z,32.30
2022-08-17T15:42:30.410Z,32.15
2022-08-17T15:44:57.465Z,32.17
2022-08-17T15:47:24.733Z,32.29
2022-08-17T15:49:55.418Z,32.42
2022-08-17T15:52:26.467Z,32.65
2022-08-17T15:54:56.158Z,32.26
2022-08-17T15:57:24.547Z,32.23
2022-08-17T15:59:54.655Z,32.15
2022-08-17T16:03:15.178Z,32.40
2022-08-17T16:05:22.043Z,32.45
2022-08-17T16:07:51.902Z,32.43
2022-08-17T16:10:19.441Z,32.73
2022-08-17T16:12:48.132Z,32.71
2022-08-17T16:15:15.499Z,32.71
2022-08-17T16:17:42.332Z,32.81
2022-08-17T16:20:20.902Z,32.77
2022-08-17T16:22:49.876Z,32.92
2022-08-17T16:25:49.714Z,33.40
2022-08-17T16:28:10.254Z,33.18
2022-08-17T16:30:38.248Z,33.34
2022-08-17T16:33:05.236Z,33.82
2022-08-17T16:35:31.835Z,33.95
2022-08-17T16:37:58.764Z,33.69
2022-08-17T16:40:27.944Z,33.82
2022-08-17T16:42:55.475Z,34.08
2022-08-17T16:45:36.297Z,34.55
2022-08-17T16:48:02.980Z,34.10
2022-08-17T16:50:29.598Z,34.08
2022-08-17T16:53:10.741Z,34.75
2022-08-17T16:55:38.052Z,34.30
2022-08-17T16:58:05.859Z,34.24
2022-08-17T17:00:33.594Z,34.04
2022-08-17T17:03:22.373Z,34.53
2022-08-17T17:06:01.471Z,34.37
2022-08-17T17:08:35.095Z,34.25
2022-08-17T17:11:15.613Z,34.62
2022-08-17T17:14:02.126Z,35.05
2022-08-17T17:16:28.583Z,35.13
2022-08-17T17:19:17.876Z,35.19
2022-08-17T17:22:25.144Z,35.57
2022-08-17T17:25:20.032Z,35.06
2022-08-17T17:28:01.817Z,35.08
2022-08-17T17:30:39.819Z,35.17
2022-08-17T17:33:10.824Z,35.62
2022-08-17T17:35:50.982Z,35.97
2022-08-17T17:38:40.415Z,35.40
2022-08-17T17:41:16.882Z,35.60
2022-08-17T17:43:43.423Z,35.78
2022-08-17T17:46:33.811Z,36.10
2022-08-17T17:49:00.918Z,35.99
2022-08-17T17:52:07.197Z,36.00
2022-08-17T17:55:04.391Z,36.63
2022-08-17T17:57:55.820Z,36.42
2022-08-17T18:00:26.249Z,36.59
2022-08-17T18:03:01.931Z,36.67
2022-08-17T18:06:06.848Z,36.51
2022-08-17T18:08:36.177Z,35.84
2022-08-17T18:11:24.038Z,37.13
2022-08-17T18:13:57.685Z,37.61
2022-08-17T18:16:27.360Z,37.22
2022-08-17T18:18:57.639Z,37.45
2022-08-17T18:21:34.858Z,37.46
2022-08-17T18:24:04.032Z,37.59
2022-08-17T18:26:33.498Z,37.93
2022-08-17T18:29:01.430Z,37.79
2022-08-17T18:31:28.187Z,37.73
2022-08-17T18:34:46.067Z,38.01
2022-08-17T18:37:08.558Z,37.85
2022-08-17T18:39:37.207Z,38.02
2022-08-17T18:42:07.653Z,38.11
2022-08-17T18:44:39.692Z,38.25
2022-08-17T18:47:25.458Z,38.52
2022-08-17T18:50:19.375Z,39.18
2022-08-17T18:52:48.408Z,38.70
2022-08-17T18:55:20.999Z,39.01
2022-08-17T18:57:56.705Z,38.97
2022-08-17T19:00:40.570Z,39.67
2022-08-17T19:03:16.177Z,39.65
2022-08-17T19:06:13.737Z,40.06
2022-08-17T19:08:40.619Z,39.41
2022-08-17T19:11:15.676Z,39.28
2022-08-17T19:14:00.934Z,39.68
2022-08-17T19:16:52.888Z,39.55
2022-08-17T19:19:30.845Z,40.08
2022-08-17T19:22:06.867Z,39.77
2022-08-17T19:24:35.151Z,39.33
2022-08-17T19:27:16.208Z,39.61
2022-08-17T19:30:08.048Z,40.19
2022-08-17T19:32:35.779Z,39.85
2022-08-17T19:35:05.867Z,40.40
2022-08-17T19:37:42.204Z,40.39
2022-08-17T19:40:24.438Z,40.51
2022-08-17T19:43:41.489Z,40.57
2022-08-17T19:46:26.348Z,40.99
2022-08-17T19:48:52.876Z,40.60
2022-08-17T19:51:40.553Z,40.89
2022-08-17T19:54:37.974Z,40.64
2022-08-17T19:57:27.269Z,41.09
2022-08-17T20:00:02.950Z,40.58
2022-08-17T20:03:05.871Z,41.13
2022-08-17T20:06:08.534Z,41.28
2022-08-17T20:08:29.208Z,41.39
2022-08-17T20:11:00.650Z,41.79
2022-08-17T20:13:39.593Z,41.58
2022-08-17T20:16:06.622Z,41.36
2022-08-17T20:18:51.615Z,42.13
2022-08-17T20:21:25.516Z,42.08
2022-08-17T20:23:54.354Z,42.12
2022-08-17T20:26:55.539Z,42.41
2022-08-17T20:29:40.006Z,42.61
2022-08-17T20:32:23.497Z,42.63
2022-08-17T20:35:03.806Z,42.66
2022-08-17T20:37:34.315Z,42.44
2022-08-17T20:40:00.927Z,42.26
2022-08-17T20:42:30.974Z,42.50
2022-08-17T20:45:02.807Z,42.67
2022-08-17T20:47:35.438Z,43.05
2022-08-17T20:50:14.965Z,43.31
2022-08-17T20:52:50.844Z,43.06
2022-08-17T20:55:51.365Z,43.20
2022-08-17T20:58:24.338Z,43.46
2022-08-17T21:00:57.122Z,42.88
2022-08-17T21:03:23.794Z,43.42
2022-08-17T21:06:00.242Z,43.85
2022-08-17T21:08:53.187Z,43.99
2022-08-17T21:12:02.364Z,43.73
2022-08-17T21:14:23.791Z,43.16
2022-08-17T21:17:29.578Z,44.15
2022-08-17T21:20:13.302Z,43.99
2022-08-17T21:22:56.908Z,44.01
2022-08-17T21:25:41.296Z,43.69
2022-08-17T21:28:21.799Z,43.38
2022-08-17T21:31:02.466Z,43.78
2022-08-17T21:33:32.169Z,43.63
2022-08-17T21:36:15.126Z,43.97
2022-08-17T21:38:48.750Z,44.27
2022-08-17T21:41:22.112Z,44.07
2022-08-17T21:43:51.360Z,44.00
2022-08-17T21:46:28.819Z,44.64
2022-08-17T21:49:02.180Z,44.11
2022-08-17T21:51:30.839Z,44.11
2022-08-17T21:54:01.259Z,44.43
2022-08-17T21:56:32.955Z,44.60
2022-08-17T21:59:04.286Z,44.62
2022-08-17T22:01:35.095Z,44.75
2022-08-17T22:04:11.561Z,44.93
2022-08-17T22:06:43.110Z,44.32
2022-08-17T22:09:32.031Z,45.11
2022-08-17T22:12:11.316Z,44.78
2022-08-17T22:14:55.966Z,44.54
2022-08-17T22:17:34.370Z,45.08
2022-08-17T22:20:14.222Z,44.13
2022-08-17T22:23:05.109Z,44.60
2022-08-17T22:25:36.161Z,44.92
2022-08-17T22:28:09.084Z,45.55
2022-08-17T22:30:40.176Z,45.38
2022-08-17T22:33:45.777Z,45.52
2022-08-17T22:36:37.272Z,45.49
2022-08-17T22:39:07.438Z,45.58
2022-08-17T22:41:55.823Z,45.31
2022-08-17T22:44:29.452Z,45.71
2022-08-17T22:47:11.327Z,45.60
2022-08-17T22:49:54.085Z,45.87
2022-08-17T22:53:02.361Z,46.04
2022-08-17T22:55:51.680Z,45.52
2022-08-17T22:58:42.233Z,45.54
2022-08-17T23:01:32.623Z,45.94
2022-08-17T23:04:08.467Z,45.55
2022-08-17T23:06:37.999Z,45.64
2022-08-17T23:09:06.823Z,45.64
2022-08-17T23:11:48.703Z,46.04
2022-08-17T23:14:19.181Z,45.60
2022-08-17T23:16:46.599Z,45.72
2022-08-17T23:19:16.729Z,45.98
2022-08-17T23:21:47.106Z,46.08
2022-08-17T23:24:21.660Z,46.67
2022-08-17T23:26:48.298Z,46.30
2022-08-17T23:29:14.929Z,46.40
2022-08-17T23:31:41.671Z,46.37
2022-08-17T23:34:13.985Z,46.97
2022-08-17T23:36:42.004Z,46.54
2022-08-17T23:39:08.554Z,46.31
2022-08-17T23:41:39.829Z,46.61
2022-08-17T23:44:07.256Z,46.83
2022-08-17T23:46:34.600Z,46.53
2022-08-17T23:49:01.371Z,46.68
2022-08-17T23:51:33.435Z,46.83
2022-08-17T23:54:11.614Z,47.26
2022-08-17T23:56:47.136Z,46.90
2022-08-17T23:59:16.255Z,47.25
